Time;durP1;ratioP1;P1;durP2;ratioP2;P2;SDS_P1;SDS_P2;PMS_P1;PMS_P2;Temp;Humidity;BMP_temperature;BMP_pressure;BME280_temperature;BME280_humidity;BME280_pressure;Samples;Min_cycle;Max_cycle;Signal;HPM_P1;HPM_P2
2023/12/18 00:03:43;;;;;;;27.80;11.82;;;;;;;8.67;96.47;102990.91;10506365;28;20047;-59
2023/12/18 00:09:05;;;;;;;33.83;12.55;;;;;;;8.69;96.84;102999.53;10506295;28;20055;-59
2023/12/18 00:14:27;;;;;;;31.70;12.18;;;;;;;8.71;96.79;102997.84;10515116;28;20070;-59
2023/12/18 00:19:48;;;;;;;31.35;11.90;;;;;;;8.70;97.38;102996.09;10509644;28;20655;-59
2023/12/18 00:25:10;;;;;;;25.23;11.57;;;;;;;8.71;97.76;102984.94;10504380;28;20040;-59
2023/12/18 00:30:32;;;;;;;26.27;12.20;;;;;;;8.69;97.37;102978.03;10498154;28;20174;-60
2023/12/18 00:35:53;;;;;;;29.65;12.05;;;;;;;8.69;97.33;102963.41;10512673;28;20044;-59
2023/12/18 00:41:15;;;;;;;34.28;13.05;;;;;;;8.69;97.55;102968.56;10504720;28;20055;-60
2023/12/18 00:46:36;;;;;;;34.35;12.90;;;;;;;8.69;97.26;102953.09;10506418;28;20051;-60
2023/12/18 00:51:59;;;;;;;29.63;13.02;;;;;;;8.62;97.86;102951.28;10499572;28;20098;-60
2023/12/18 00:57:20;;;;;;;32.83;13.30;;;;;;;8.58;97.95;102944.34;10505913;28;20051;-60
2023/12/18 01:02:42;;;;;;;39.25;13.23;;;;;;;8.57;98.32;102928.84;10506774;28;20048;-59
2023/12/18 01:08:04;;;;;;;32.88;13.15;;;;;;;8.57;98.47;102934.84;10498977;28;20036;-60
2023/12/18 01:13:26;;;;;;;33.83;14.00;;;;;;;8.55;98.66;102939.13;10498577;28;20063;-60
2023/12/18 01:18:47;;;;;;;32.28;13.13;;;;;;;8.52;98.94;102939.09;10504702;28;20064;-60
2023/12/18 01:24:09;;;;;;;33.38;13.90;;;;;;;8.56;98.80;102956.38;10503561;28;20044;-59
2023/12/18 01:29:31;;;;;;;39.50;14.23;;;;;;;8.55;99.15;102964.94;10518375;28;20051;-61
2023/12/18 01:34:53;;;;;;;32.28;14.32;;;;;;;8.57;98.90;102962.41;10502446;28;20056;-59
2023/12/18 01:40:15;;;;;;;36.90;14.13;;;;;;;8.55;99.12;102969.25;10500244;28;20128;-59
2023/12/18 01:45:36;;;;;;;36.25;13.70;;;;;;;8.59;99.16;102971.88;10503587;28;20070;-59
2023/12/18 01:50:59;;;;;;;30.67;14.50;;;;;;;8.60;99.06;102952.09;10506400;28;20127;-59
2023/12/18 01:56:25;;;;;;;31.65;13.60;;;;;;;8.59;99.13;102951.22;10507122;28;20151;-59
2023/12/18 02:01:47;;;;;;;;;;;;;;;8.61;99.50;102957.28;10524482;28;20455;-59
2023/12/18 02:07:10;;;;;;;36.13;13.45;;;;;;;8.64;99.39;102944.44;10504558;28;20376;-59
2023/12/18 02:12:32;;;;;;;27.50;13.77;;;;;;;8.65;99.67;102930.66;10503583;28;20079;-59
2023/12/18 02:17:54;;;;;;;31.55;13.93;;;;;;;8.67;99.55;102933.25;10504103;28;20044;-60
2023/12/18 02:23:15;;;;;;;43.53;14.68;;;;;;;8.68;99.63;102927.28;10502602;28;20122;-59
2023/12/18 02:28:38;;;;;;;33.40;14.07;;;;;;;8.67;99.59;102913.50;10499802;28;20044;-60
2023/12/18 02:34:02;;;;;;;31.10;13.68;;;;;;;8.68;99.59;102910.03;10490719;28;20181;-60
2023/12/18 02:39:24;;;;;;;34.72;15.10;;;;;;;8.68;99.77;102894.56;10500313;28;20495;-60
2023/12/18 02:44:45;;;;;;;31.23;13.52;;;;;;;8.66;100.00;102924.66;10499911;28;20082;-59
2023/12/18 02:50:07;;;;;;;31.00;14.43;;;;;;;8.66;100.00;102941.88;10499534;28;20407;-59
2023/12/18 02:55:29;;;;;;;40.80;14.18;;;;;;;8.64;100.00;102928.94;10500776;28;20089;-59
2023/12/18 03:00:51;;;;;;;33.22;14.45;;;;;;;8.63;100.00;102916.88;10499235;28;20052;-61
2023/12/18 03:06:13;;;;;;;39.45;15.85;;;;;;;8.62;100.00;102899.69;10496714;28;20072;-59
2023/12/18 03:11:34;;;;;;;39.40;14.18;;;;;;;8.65;100.00;102899.69;10506768;28;20063;-59
2023/12/18 03:16:56;;;;;;;38.45;15.05;;;;;;;8.63;100.00;102896.22;10488089;28;20044;-60
2023/12/18 03:22:17;;;;;;;34.00;14.85;;;;;;;8.63;100.00;102901.41;10498636;28;20044;-59
2023/12/18 03:27:39;;;;;;;40.55;15.70;;;;;;;8.58;100.00;102897.91;10507638;28;20051;-60
2023/12/18 03:33:01;;;;;;;35.35;15.45;;;;;;;8.62;100.00;102898.81;10512165;28;20138;-60
2023/12/18 03:38:24;;;;;;;36.05;15.50;;;;;;;8.63;100.00;102906.56;10512606;28;20190;-59
2023/12/18 03:43:46;;;;;;;42.63;15.10;;;;;;;8.63;100.00;102891.06;10499116;28;20068;-59
2023/12/18 03:49:08;;;;;;;34.58;14.75;;;;;;;8.59;100.00;102888.47;10495029;28;20047;-60
2023/12/18 03:54:29;;;;;;;32.42;14.75;;;;;;;8.59;100.00;102893.63;10504391;28;20135;-59
2023/12/18 03:59:51;;;;;;;38.85;15.77;;;;;;;8.51;100.00;102896.09;10508526;28;20070;-59
2023/12/18 04:05:13;;;;;;;36.60;16.08;;;;;;;8.52;100.00;102891.78;10510139;28;20049;-60
2023/12/18 04:10:34;;;;;;;34.35;15.73;;;;;;;8.47;100.00;102891.75;10504926;28;20051;-60
2023/12/18 04:15:56;;;;;;;36.83;16.23;;;;;;;8.43;100.00;102877.09;10506910;28;20049;-59
2023/12/18 04:21:21;;;;;;;33.03;16.90;;;;;;;8.42;100.00;102859.88;10507043;28;20060;-59
2023/12/18 04:26:43;;;;;;;38.05;17.90;;;;;;;8.40;100.00;102859.00;10497875;28;20042;-60
2023/12/18 04:32:05;;;;;;;41.65;17.85;;;;;;;8.34;100.00;102846.03;10514837;28;20055;-60
2023/12/18 04:37:27;;;;;;;40.58;18.67;;;;;;;8.31;100.00;102848.56;10508413;28;20055;-59
2023/12/18 04:42:52;;;;;;;42.00;19.50;;;;;;;8.30;100.00;102851.97;10503567;28;20395;-59
2023/12/18 04:48:14;;;;;;;40.40;19.02;;;;;;;8.28;100.00;102850.25;10506077;28;20135;-60
2023/12/18 04:53:36;;;;;;;42.80;18.85;;;;;;;8.27;100.00;102849.38;10497670;28;20055;-59
2023/12/18 04:58:58;;;;;;;47.25;20.27;;;;;;;8.31;100.00;102861.47;10503368;28;20144;-60
2023/12/18 05:04:19;;;;;;;46.72;21.15;;;;;;;8.31;100.00;102851.16;10507632;28;20044;-59
2023/12/18 05:09:41;;;;;;;42.53;20.73;;;;;;;8.30;100.00;102844.25;10510393;28;20040;-60
2023/12/18 05:15:05;;;;;;;45.20;20.05;;;;;;;8.33;100.00;102840.84;10505248;28;20059;-60
2023/12/18 05:20:30;;;;;;;42.75;19.92;;;;;;;8.32;100.00;102837.41;10526781;28;20044;-60
2023/12/18 05:25:51;;;;;;;46.47;20.85;;;;;;;8.33;100.00;102848.59;10487349;28;20048;-60
2023/12/18 05:31:15;;;;;;;43.13;20.45;;;;;;;8.33;100.00;102854.63;10503543;28;20155;-59
2023/12/18 05:36:37;;;;;;;39.63;20.20;;;;;;;8.33;100.00;102867.53;10505621;28;20063;-59
2023/12/18 05:41:58;;;;;;;47.45;20.80;;;;;;;8.37;100.00;102873.56;10507693;28;20083;-60
2023/12/18 05:47:20;;;;;;;51.03;20.45;;;;;;;8.39;100.00;102865.00;10506364;28;20109;-59
2023/12/18 05:52:41;;;;;;;47.55;19.98;;;;;;;8.38;100.00;102868.44;10486945;28;20055;-59
2023/12/18 05:58:03;;;;;;;38.72;19.67;;;;;;;8.43;100.00;102871.03;10503920;28;20143;-59
2023/12/18 06:03:25;;;;;;;35.13;18.90;;;;;;;8.44;100.00;102868.47;10503311;28;20048;-59
2023/12/18 06:08:47;;;;;;;40.72;18.58;;;;;;;8.44;100.00;102873.63;10499560;28;20127;-59
2023/12/18 06:14:08;;;;;;;46.45;18.48;;;;;;;8.48;100.00;102859.09;10500808;28;20047;-60
2023/12/18 06:19:30;;;;;;;36.53;17.88;;;;;;;8.51;100.00;102877.16;10504949;28;20032;-59
2023/12/18 06:24:52;;;;;;;38.83;17.48;;;;;;;8.53;100.00;102870.31;10504613;28;20060;-60
2023/12/18 06:30:15;;;;;;;41.95;18.40;;;;;;;8.54;100.00;102879.78;10507170;28;20044;-60
2023/12/18 06:35:37;;;;;;;33.60;16.95;;;;;;;8.59;100.00;102886.72;10500551;28;20051;-60
2023/12/18 06:41:00;;;;;;;35.47;17.60;;;;;;;8.61;100.00;102890.19;10511162;28;20512;-59
2023/12/18 06:46:22;;;;;;;41.60;17.40;;;;;;;8.59;100.00;102878.97;10513607;28;20417;-60
2023/12/18 06:51:44;;;;;;;39.15;16.85;;;;;;;8.63;100.00;102880.75;10526054;28;20047;-60
2023/12/18 06:57:06;;;;;;;36.97;15.93;;;;;;;8.65;100.00;102861.00;10528304;28;20095;-59
2023/12/18 07:02:28;;;;;;;37.28;17.50;;;;;;;8.64;100.00;102871.31;10550999;28;20484;-60
2023/12/18 07:07:50;;;;;;;31.17;16.63;;;;;;;8.68;100.00;102886.81;10553707;27;20139;-58
2023/12/18 07:13:12;;;;;;;40.83;17.00;;;;;;;8.70;100.00;102877.38;10549192;28;20395;-59
2023/12/18 07:18:33;;;;;;;27.20;15.45;;;;;;;8.65;100.00;102873.91;10552780;27;20052;-60
2023/12/18 07:23:55;;;;;;;35.67;16.60;;;;;;;8.66;100.00;102883.34;10550669;27;20072;-59
2023/12/18 07:29:17;;;;;;;32.63;15.70;;;;;;;8.68;100.00;102868.75;10553189;28;20043;-59
2023/12/18 07:34:39;;;;;;;34.67;15.70;;;;;;;8.68;100.00;102858.44;10553155;28;20132;-59
2023/12/18 07:40:01;;;;;;;27.83;15.25;;;;;;;8.68;100.00;102873.06;10554111;27;20052;-59
2023/12/18 07:45:22;;;;;;;33.60;16.52;;;;;;;8.68;100.00;102873.91;10552774;27;20138;-59
2023/12/18 07:50:45;;;;;;;39.00;15.30;;;;;;;8.69;100.00;102874.78;10554926;27;20611;-60
2023/12/18 07:56:07;;;;;;;36.00;16.33;;;;;;;8.68;100.00;102885.97;10545966;27;20492;-60
2023/12/18 08:01:29;;;;;;;34.65;16.45;;;;;;;8.71;100.00;102886.88;10548630;28;20043;-60
2023/12/18 08:06:53;;;;;;;37.63;16.70;;;;;;;8.70;100.00;102892.88;10548602;27;20043;-60
2023/12/18 08:12:15;;;;;;;35.00;16.77;;;;;;;8.69;100.00;102887.69;10549417;28;20058;-59
2023/12/18 08:17:39;;;;;;;33.80;16.67;;;;;;;8.72;100.00;102886.00;10554259;28;20404;-60
2023/12/18 08:23:01;;;;;;;39.63;16.83;;;;;;;8.74;100.00;102879.16;10557108;28;20059;-60
2023/12/18 08:28:23;;;;;;;36.38;17.40;;;;;;;8.75;100.00;102870.53;10545948;28;20052;-60
2023/12/18 08:33:44;;;;;;;32.03;16.20;;;;;;;8.75;100.00;102880.88;10545163;27;20055;-59
2023/12/18 08:39:08;;;;;;;40.67;17.02;;;;;;;8.77;100.00;102868.84;10533612;27;20813;-60
2023/12/18 08:44:31;;;;;;;40.85;18.17;;;;;;;8.77;100.00;102868.00;10551897;27;20518;-60
2023/12/18 08:49:52;;;;;;;41.33;17.38;;;;;;;8.75;100.00;102873.13;10545238;27;20054;-60
2023/12/18 08:55:14;;;;;;;38.45;17.10;;;;;;;8.76;100.00;102881.75;10549109;27;20496;-60
2023/12/18 09:00:36;;;;;;;37.58;17.42;;;;;;;8.77;100.00;102874.00;10537021;28;20070;-59
2023/12/18 09:05:58;;;;;;;42.92;17.38;;;;;;;8.78;100.00;102870.59;10538484;27;20403;-60
2023/12/18 09:11:20;;;;;;;39.70;17.83;;;;;;;8.78;100.00;102870.59;10549304;28;20453;-60
2023/12/18 09:16:44;;;;;;;39.78;17.20;;;;;;;8.80;100.00;102893.84;10545151;28;20036;-59
2023/12/18 09:22:06;;;;;;;32.38;17.45;;;;;;;8.79;100.00;102872.31;10544544;28;20043;-60
2023/12/18 09:27:27;;;;;;;39.95;17.95;;;;;;;8.79;100.00;102872.31;10529519;28;20058;-59
2023/12/18 09:32:49;;;;;;;40.13;18.27;;;;;;;8.81;100.00;102869.75;10541328;28;20058;-60
2023/12/18 09:38:11;;;;;;;43.35;18.23;;;;;;;8.84;100.00;102865.50;10547522;28;20132;-60
2023/12/18 09:43:33;;;;;;;40.17;18.40;;;;;;;8.94;100.00;102872.47;10526958;28;20129;-59
2023/12/18 09:48:55;;;;;;;34.17;18.02;;;;;;;8.97;100.00;102851.84;10538875;27;20048;-60
2023/12/18 09:54:17;;;;;;;37.97;18.52;;;;;;;8.97;100.00;102862.16;10544942;28;20139;-59
2023/12/18 09:59:38;;;;;;;39.95;18.00;;;;;;;8.95;100.00;102850.94;10539248;27;20075;-59
2023/12/18 10:05:00;;;;;;;36.72;19.08;;;;;;;8.93;100.00;102844.94;10544274;28;20048;-60
2023/12/18 10:10:22;;;;;;;44.75;18.48;;;;;;;8.97;100.00;102836.34;10553380;28;20047;-60
2023/12/18 10:15:43;;;;;;;41.00;18.80;;;;;;;8.99;100.00;102831.22;10538736;28;20051;-59
2023/12/18 10:21:05;;;;;;;47.53;20.65;;;;;;;8.95;100.00;102817.38;10538405;28;20047;-59
2023/12/18 10:26:28;;;;;;;48.22;20.13;;;;;;;8.97;100.00;102822.59;10536810;28;20047;-60
2023/12/18 10:31:50;;;;;;;42.97;21.13;;;;;;;8.95;100.00;102796.75;10542825;28;20044;-59
2023/12/18 10:37:13;;;;;;;46.00;20.08;;;;;;;8.96;100.00;102793.31;10527177;28;20071;-59
2023/12/18 10:42:37;;;;;;;45.20;20.25;;;;;;;8.98;100.00;102796.78;10544614;28;20091;-60
2023/12/18 10:47:59;;;;;;;48.55;19.77;;;;;;;8.96;100.00;102793.31;10537661;28;20071;-59
2023/12/18 10:53:22;;;;;;;52.13;20.77;;;;;;;8.96;100.00;102783.00;10537813;28;20051;-59
2023/12/18 10:58:47;;;;;;;49.35;20.17;;;;;;;8.97;100.00;102776.97;10536808;28;20592;-60
2023/12/18 11:04:09;;;;;;;46.73;19.87;;;;;;;8.99;100.00;102766.69;10536726;28;20055;-59
2023/12/18 11:09:31;;;;;;;47.78;20.40;;;;;;;9.00;100.00;102774.44;10537548;28;20050;-59
2023/12/18 11:15:19;;;;;;;43.17;21.15;;;;;;;9.02;100.00;102764.09;10533902;28;20138;-60
2023/12/18 11:20:42;;;;;;;42.53;19.33;;;;;;;9.03;100.00;102746.03;10542269;28;20139;-60
2023/12/18 11:26:05;;;;;;;47.88;21.48;;;;;;;9.09;100.00;102743.50;10540704;28;20054;-60
2023/12/18 11:31:27;;;;;;;46.35;21.55;;;;;;;9.07;100.00;102739.16;10544865;28;20127;-59
2023/12/18 11:36:50;;;;;;;47.10;21.08;;;;;;;9.11;100.00;102746.97;10541946;28;20143;-60
2023/12/18 11:42:11;;;;;;;47.58;20.83;;;;;;;9.06;100.00;102748.63;10522802;28;20094;-59
2023/12/18 11:47:33;;;;;;;43.85;20.38;;;;;;;9.11;100.00;102736.63;10530249;28;20152;-59
2023/12/18 11:52:59;;;;;;;49.03;21.20;;;;;;;9.10;100.00;102728.88;10543946;28;20121;-59
2023/12/18 11:58:25;;;;;;;52.25;21.13;;;;;;;9.07;100.00;102709.06;10560099;27;20051;-59
2023/12/18 12:03:47;;;;;;;41.50;20.45;;;;;;;9.10;100.00;102713.38;10534554;28;20055;-60
2023/12/18 12:09:09;;;;;;;47.60;21.05;;;;;;;9.11;100.00;102715.09;10555006;28;20101;-60
2023/12/18 12:14:31;;;;;;;54.83;21.75;;;;;;;9.14;100.00;102705.66;10539705;27;20051;-59
2023/12/18 12:19:53;;;;;;;42.08;20.17;;;;;;;9.16;100.00;102681.56;10548386;28;20048;-60
2023/12/18 12:25:14;;;;;;;45.03;20.60;;;;;;;9.16;100.00;102676.41;10545018;28;20047;-60
2023/12/18 12:30:36;;;;;;;50.17;20.92;;;;;;;9.17;100.00;102694.50;10559006;27;20055;-60
2023/12/18 12:35:58;;;;;;;45.20;20.00;;;;;;;9.17;100.00;102697.06;10545704;27;20058;-60
2023/12/18 12:41:19;;;;;;;46.28;20.90;;;;;;;9.17;100.00;102715.16;10550775;28;20047;-60
2023/12/18 12:46:42;;;;;;;47.33;21.85;;;;;;;9.16;100.00;102704.81;10536703;28;20048;-61
2023/12/18 12:52:04;;;;;;;44.67;21.85;;;;;;;9.12;100.00;102694.44;10533090;28;20048;-60
2023/12/18 12:57:26;;;;;;;42.47;19.83;;;;;;;9.11;100.00;102679.81;10528327;28;20055;-60
2023/12/18 13:02:48;;;;;;;42.97;20.75;;;;;;;9.13;100.00;102678.13;10524362;28;20091;-60
2023/12/18 13:08:12;;;;;;;45.22;21.90;;;;;;;9.10;100.00;102669.50;10535101;28;20052;-60
2023/12/18 13:13:34;;;;;;;43.33;21.25;;;;;;;9.10;100.00;102670.34;10536519;27;20491;-60
2023/12/18 13:18:56;;;;;;;46.67;21.92;;;;;;;9.10;100.00;102667.75;10546336;27;20051;-60
2023/12/18 13:24:18;;;;;;;48.75;21.73;;;;;;;9.12;100.00;102660.00;10542812;27;20043;-60
2023/12/18 13:29:42;;;;;;;43.78;21.00;;;;;;;9.10;100.00;102652.25;10542111;28;20055;-60
2023/12/18 13:35:06;;;;;;;43.78;20.35;;;;;;;9.16;100.00;102635.94;10533107;28;20958;-60
2023/12/18 13:40:29;;;;;;;43.70;20.63;;;;;;;9.07;100.00;102630.72;10511237;28;20047;-60
2023/12/18 13:45:51;;;;;;;42.78;20.50;;;;;;;9.08;100.00;102625.56;10531213;28;20051;-60
2023/12/18 13:51:15;;;;;;;50.33;22.08;;;;;;;9.08;100.00;102627.31;10549459;27;20059;-60
2023/12/18 13:56:37;;;;;;;43.58;20.67;;;;;;;9.12;100.00;102619.56;10543787;28;20055;-60
2023/12/18 14:02:00;;;;;;;43.83;19.75;;;;;;;9.11;100.00;102602.34;10536079;27;20044;-60
2023/12/18 14:07:22;;;;;;;37.05;19.60;;;;;;;9.10;100.00;102615.25;10533149;28;20039;-60
2023/12/18 14:12:44;;;;;;;46.15;19.83;;;;;;;9.12;100.00;102604.06;10539478;27;20040;-60
2023/12/18 14:18:06;;;;;;;45.28;21.00;;;;;;;9.13;100.00;102599.78;10544356;28;20050;-60
2023/12/18 14:23:27;;;;;;;47.92;21.23;;;;;;;9.12;100.00;102609.22;10545526;27;20048;-60
2023/12/18 14:28:50;;;;;;;41.38;20.83;;;;;;;9.08;100.00;102586.81;10542287;28;21678;-60
2023/12/18 14:34:12;;;;;;;40.90;20.45;;;;;;;9.11;100.00;102594.59;10538226;27;20174;-60
2023/12/18 14:39:36;;;;;;;42.72;21.35;;;;;;;9.12;100.00;102592.88;10539788;28;20040;-59
2023/12/18 14:44:58;;;;;;;47.38;21.58;;;;;;;9.13;100.00;102590.31;10524798;28;20422;-60
2023/12/18 14:50:19;;;;;;;39.25;21.30;;;;;;;9.15;100.00;102605.81;10549446;28;20124;-60
2023/12/18 14:55:41;;;;;;;38.35;21.98;;;;;;;9.18;100.00;102586.84;10540634;28;20044;-60
2023/12/18 15:01:03;;;;;;;37.13;19.80;;;;;;;9.18;100.00;102592.03;10542966;28;20567;-60
2023/12/18 15:06:25;;;;;;;42.03;20.60;;;;;;;9.17;100.00;102562.78;10545476;28;20512;-58
2023/12/18 15:11:47;;;;;;;43.70;21.17;;;;;;;9.16;100.00;102562.78;10535201;28;20453;-60
2023/12/18 15:17:09;;;;;;;46.97;20.67;;;;;;;9.21;100.00;102555.91;10531566;28;20063;-59
2023/12/18 15:22:31;;;;;;;42.40;20.58;;;;;;;9.23;100.00;102582.59;10539194;28;20063;-58
2023/12/18 15:27:54;;;;;;;42.58;20.23;;;;;;;9.27;100.00;102604.97;10546159;27;20043;-58
2023/12/18 15:33:16;;;;;;;42.03;21.10;;;;;;;9.22;100.00;102594.66;10542379;28;20177;-58
2023/12/18 15:38:39;;;;;;;45.58;21.45;;;;;;;9.20;100.00;102587.72;10538124;28;20048;-59
2023/12/18 15:44:01;;;;;;;45.55;21.40;;;;;;;9.18;100.00;102587.72;10541199;28;20060;-60
2023/12/18 15:49:25;;;;;;;40.95;21.25;;;;;;;9.18;100.00;102576.53;10541909;27;20132;-60
2023/12/18 15:54:48;;;;;;;40.93;20.67;;;;;;;9.18;100.00;102530.03;10534612;27;20055;-60
2023/12/18 16:00:10;;;;;;;49.38;21.90;;;;;;;9.17;100.00;102533.50;10551007;27;20060;-60
2023/12/18 16:05:34;;;;;;;42.30;21.80;;;;;;;9.15;100.00;102520.59;10537847;27;20051;-60
2023/12/18 16:10:56;;;;;;;40.20;21.77;;;;;;;9.15;100.00;102505.09;10537126;28;20044;-60
2023/12/18 16:16:18;;;;;;;40.60;21.52;;;;;;;9.13;100.00;102496.47;10549677;28;20055;-60
2023/12/18 16:21:41;;;;;;;43.67;22.35;;;;;;;9.09;100.00;102500.78;10532538;28;20062;-60
2023/12/18 16:27:06;;;;;;;46.28;22.55;;;;;;;9.10;100.00;102492.16;10544814;27;20050;-59
2023/12/18 16:32:28;;;;;;;47.57;22.00;;;;;;;9.13;100.00;102487.03;10543986;28;20121;-60
2023/12/18 16:37:49;;;;;;;48.28;22.52;;;;;;;9.08;100.00;102485.28;10547322;28;20039;-59
2023/12/18 16:43:11;;;;;;;48.47;22.65;;;;;;;9.10;100.00;102476.66;10540846;28;20058;-59
2023/12/18 16:48:35;;;;;;;44.17;23.35;;;;;;;9.10;100.00;102465.50;10544728;28;20518;-61
2023/12/18 16:53:56;;;;;;;48.25;24.33;;;;;;;9.10;100.00;102466.34;10543662;27;20075;-59
2023/12/18 16:59:18;;;;;;;50.00;23.33;;;;;;;9.03;100.00;102459.44;10545049;27;20380;-60
2023/12/18 17:04:40;;;;;;;51.58;24.65;;;;;;;9.06;100.00;102477.50;10538756;28;20131;-61
2023/12/18 17:10:02;;;;;;;50.83;23.65;;;;;;;9.03;100.00;102466.31;10533830;28;20048;-59
2023/12/18 17:15:28;;;;;;;53.88;25.10;;;;;;;9.00;100.00;102467.19;10541510;27;20487;-60
2023/12/18 17:20:51;;;;;;;47.38;25.67;;;;;;;8.99;100.00;102452.53;10541450;27;20055;-59
2023/12/18 17:26:14;;;;;;;48.00;24.48;;;;;;;8.99;100.00;102447.38;10535336;27;20059;-59
2023/12/18 17:31:36;;;;;;;48.67;25.20;;;;;;;8.98;100.00;102462.84;10540816;28;20043;-60
2023/12/18 17:36:58;;;;;;;47.38;25.63;;;;;;;8.96;100.00;102475.78;10545612;28;20051;-60
2023/12/18 17:42:20;;;;;;;49.80;26.05;;;;;;;8.96;100.00;102456.81;10543119;28;20143;-60
2023/12/18 17:47:41;;;;;;;52.85;26.15;;;;;;;8.90;100.00;102431.03;10525596;28;20536;-60
2023/12/18 17:53:05;;;;;;;55.28;27.92;;;;;;;8.83;100.00;102406.91;10534391;28;20059;-60
2023/12/18 17:58:26;;;;;;;50.50;26.75;;;;;;;8.84;100.00;102400.88;10529169;28;20051;-60
2023/12/18 18:03:48;;;;;;;53.17;27.42;;;;;;;8.78;100.00;102392.25;10516793;28;20051;-59
2023/12/18 18:09:10;;;;;;;65.35;26.90;;;;;;;8.77;100.00;102403.44;10546233;28;20461;-60
2023/12/18 18:14:32;;;;;;;50.67;27.08;;;;;;;8.76;100.00;102410.31;10535188;28;20046;-60
2023/12/18 18:19:53;;;;;;;54.38;28.10;;;;;;;8.75;100.00;102395.69;10533685;28;20070;-60
2023/12/18 18:25:15;;;;;;;56.38;27.80;;;;;;;8.75;100.00;102400.84;10539691;27;20050;-60
2023/12/18 18:30:37;;;;;;;45.72;27.45;;;;;;;8.73;100.00;102389.69;10540018;28;20050;-60
2023/12/18 18:35:59;;;;;;;57.67;27.60;;;;;;;8.74;100.00;102378.47;10548290;27;20043;-60
2023/12/18 18:41:23;;;;;;;53.42;27.27;;;;;;;8.72;100.00;102363.84;10541024;28;21578;-60
2023/12/18 18:46:48;;;;;;;48.13;27.17;;;;;;;8.75;100.00;102364.72;10537678;28;20492;-60
2023/12/18 18:52:10;;;;;;;50.90;26.67;;;;;;;8.78;100.00;102323.44;10537459;28;20055;-59
2023/12/18 18:57:32;;;;;;;49.88;25.90;;;;;;;8.77;100.00;102363.00;10544663;28;20043;-60
2023/12/18 19:02:56;;;;;;;47.30;26.80;;;;;;;8.77;100.00;102380.22;10544887;28;20150;-60
2023/12/18 19:08:23;;;;;;;49.42;27.17;;;;;;;8.77;100.00;102364.75;10539291;28;20051;-60
2023/12/18 19:13:44;;;;;;;45.35;26.50;;;;;;;8.76;100.00;102379.34;10533114;28;20057;-60
2023/12/18 19:19:06;;;;;;;50.30;26.80;;;;;;;8.77;100.00;102387.97;10532627;28;20492;-60
2023/12/18 19:24:28;;;;;;;47.65;26.25;;;;;;;8.78;100.00;102380.22;10542198;28;20054;-62
2023/12/18 19:29:49;;;;;;;45.97;25.85;;;;;;;8.81;100.00;102369.91;10539981;28;20048;-61
2023/12/18 19:35:11;;;;;;;47.92;26.17;;;;;;;8.76;100.00;102355.25;10543554;28;20074;-60
2023/12/18 19:40:33;;;;;;;48.83;26.55;;;;;;;8.75;100.00;102328.56;10541244;28;20146;-60
2023/12/18 19:45:54;;;;;;;45.33;26.23;;;;;;;8.72;100.00;102333.75;10531193;28;20048;-60
2023/12/18 19:51:16;;;;;;;51.13;27.17;;;;;;;8.67;100.00;102343.22;10535723;28;20092;-60
2023/12/18 19:56:38;;;;;;;45.67;27.45;;;;;;;8.67;100.00;102332.88;10534756;28;20074;-60
2023/12/18 20:01:59;;;;;;;46.70;28.10;;;;;;;8.67;100.00;102332.88;10527168;28;20039;-60
2023/12/18 20:07:21;;;;;;;52.42;26.88;;;;;;;8.65;100.00;102337.19;10539187;28;20473;-60
2023/12/18 20:12:43;;;;;;;50.95;27.77;;;;;;;8.66;100.00;102322.56;10556317;28;20087;-60
2023/12/18 20:18:06;;;;;;;49.78;26.60;;;;;;;8.59;100.00;102332.00;10544255;27;20131;-60
2023/12/18 20:23:28;;;;;;;49.85;27.33;;;;;;;8.64;100.00;102320.00;10543069;28;20055;-60
2023/12/18 20:28:50;;;;;;;43.97;27.65;;;;;;;8.67;100.00;102307.09;10546281;28;20044;-59
2023/12/18 20:34:11;;;;;;;49.33;27.35;;;;;;;8.69;100.00;102315.69;10541754;28;20059;-60
2023/12/18 20:39:33;;;;;;;52.78;26.70;;;;;;;8.67;100.00;102324.28;10543102;28;20171;-60
2023/12/18 20:44:55;;;;;;;50.25;26.25;;;;;;;8.66;100.00;102328.56;10545544;27;20488;-59
2023/12/18 20:50:17;;;;;;;45.45;26.27;;;;;;;8.60;100.00;102318.25;10547431;28;20043;-60
2023/12/18 20:55:39;;;;;;;48.45;26.67;;;;;;;8.60;100.00;102307.94;10545425;28;20048;-60
2023/12/18 21:01:00;;;;;;;49.53;27.38;;;;;;;8.59;100.00;102316.50;10548558;27;20036;-59
2023/12/18 21:06:22;;;;;;;47.45;27.13;;;;;;;8.57;100.00;102318.22;10547627;28;20135;-59
2023/12/18 21:11:44;;;;;;;50.75;27.45;;;;;;;8.59;100.00;102318.25;10548254;28;20040;-59
2023/12/18 21:17:05;;;;;;;48.45;26.20;;;;;;;8.59;100.00;102310.53;10554975;27;20071;-60
2023/12/18 21:22:27;;;;;;;57.00;28.45;;;;;;;8.58;100.00;102299.34;10548793;28;20043;-60
2023/12/18 21:27:49;;;;;;;50.53;27.63;;;;;;;8.52;100.00;102270.94;10543986;28;20054;-60
2023/12/18 21:33:11;;;;;;;55.78;28.25;;;;;;;8.37;100.00;102265.72;10534122;27;20051;-59
2023/12/18 21:38:32;;;;;;;49.17;27.33;;;;;;;8.32;100.00;102238.22;10533292;28;20424;-60
2023/12/18 21:43:55;;;;;;;56.58;27.98;;;;;;;8.28;100.00;102257.97;10537480;27;20431;-60
2023/12/18 21:49:16;;;;;;;51.20;28.58;;;;;;;8.20;100.00;102256.22;10541204;28;20040;-59
2023/12/18 21:54:39;;;;;;;54.15;27.88;;;;;;;8.21;100.00;102248.47;10544922;28;20043;-59
2023/12/18 22:00:01;;;;;;;54.95;26.73;;;;;;;8.24;100.00;102243.34;10545627;28;20056;-61
2023/12/18 22:05:25;;;;;;;48.45;26.92;;;;;;;8.16;100.00;102232.16;10541193;28;20051;-61
2023/12/18 22:10:47;;;;;;;51.03;26.75;;;;;;;8.14;100.00;102218.41;10551044;28;20380;-60
2023/12/18 22:16:09;;;;;;;52.65;26.38;;;;;;;8.12;100.00;102245.88;10523907;28;20047;-62
2023/12/18 22:21:30;;;;;;;55.45;26.08;;;;;;;8.09;100.00;102261.34;10542168;28;20071;-60
2023/12/18 22:26:52;;;;;;;47.58;25.58;;;;;;;8.06;100.00;102251.00;10536684;27;20190;-61
2023/12/18 22:32:14;;;;;;;48.45;26.02;;;;;;;8.03;100.00;102238.13;10537835;28;20983;-60
2023/12/18 22:37:35;;;;;;;50.40;26.38;;;;;;;7.99;100.00;102251.84;10536230;28;20144;-60
2023/12/18 22:42:57;;;;;;;53.83;26.40;;;;;;;7.92;100.00;102227.78;10533907;28;20489;-60
2023/12/18 22:48:19;;;;;;;52.78;25.98;;;;;;;7.96;100.00;102242.41;10540300;28;20055;-60
2023/12/18 22:53:42;;;;;;;47.72;26.33;;;;;;;8.01;100.00;102234.69;10544212;28;20055;-60
2023/12/18 22:59:03;;;;;;;53.25;26.77;;;;;;;7.96;100.00;102218.34;10543346;28;20086;-60
2023/12/18 23:04:27;;;;;;;54.67;27.15;;;;;;;7.91;100.00;102209.75;10543970;28;20047;-60
2023/12/18 23:09:49;;;;;;;57.83;26.48;;;;;;;7.94;100.00;102225.22;10525412;28;20048;-60
2023/12/18 23:15:10;;;;;;;54.17;27.27;;;;;;;7.94;100.00;102222.63;10547635;28;20051;-60
2023/12/18 23:20:35;;;;;;;53.33;27.63;;;;;;;7.97;100.00;102220.94;10542589;28;20547;-60
2023/12/18 23:25:56;;;;;;;52.65;28.73;;;;;;;7.95;100.00;102216.59;10535659;28;20388;-60
2023/12/18 23:31:18;;;;;;;64.88;28.52;;;;;;;7.87;100.00;102224.31;10541376;28;20048;-61
2023/12/18 23:36:40;;;;;;;55.40;27.38;;;;;;;7.86;100.00;102226.88;10538781;28;20048;-60
2023/12/18 23:42:02;;;;;;;54.72;28.15;;;;;;;7.82;100.00;102215.72;10546130;28;20051;-60
2023/12/18 23:47:24;;;;;;;55.85;27.90;;;;;;;7.81;100.00;102211.44;10542557;27;20709;-60
2023/12/18 23:52:46;;;;;;;53.30;28.83;;;;;;;7.81;100.00;102202.81;10543423;28;20138;-60
2023/12/18 23:58:10;;;;;;;46.90;24.00;;;;;;;7.80;100.00;102201.97;10544626;27;20055;-60
